Time,TemperatureF,DewpointF,PressureIn,WindDirection,WindDirectionDegrees,WindSpeedMPH,WindSpeedGustMPH,Humidity,HourlyPrecipIn,Conditions,Clouds,dailyrainin,SoftwareType,DateUTC
2013-03-27 00:04:00,34.6,28.8,30.22,West,281,1.0,2.0,79,0.00,,,0.00,Wunderground v.1.15,2013-03-27 04:04:00,
2013-03-27 00:10:00,34.6,28.8,30.22,West,267,1.0,1.0,79,0.00,,,0.00,Wunderground v.1.15,2013-03-27 04:10:00,
2013-03-27 00:15:00,34.6,28.8,30.22,West,270,0.0,2.0,79,0.00,,,0.00,Wunderground v.1.15,2013-03-27 04:15:00,
2013-03-27 00:20:00,34.6,28.8,30.22,West,280,1.0,1.0,79,0.00,,,0.00,Wunderground v.1.15,2013-03-27 04:20:00,
2013-03-27 00:25:00,34.6,28.4,30.22,West,277,1.0,1.0,78,0.00,,,0.00,Wunderground v.1.15,2013-03-27 04:25:00,
2013-03-27 00:29:00,34.7,28.2,30.22,WNW,285,2.0,7.0,77,0.00,,,0.00,Wunderground v.1.15,2013-03-27 04:29:00,
2013-03-27 00:35:00,34.9,28.1,30.22,WNW,296,2.0,7.0,76,0.00,,,0.00,Wunderground v.1.15,2013-03-27 04:35:00,
2013-03-27 00:44:00,34.9,28.1,30.22,NW,316,2.0,2.0,76,0.00,,,0.00,Wunderground v.1.15,2013-03-27 04:44:00,
2013-03-27 00:49:00,34.9,28.1,30.22,NW,305,3.0,3.0,76,0.00,,,0.00,Wunderground v.1.15,2013-03-27 04:49:00,
2013-03-27 00:54:00,34.9,28.1,30.22,NW,304,3.0,3.0,76,0.00,,,0.00,Wunderground v.1.15,2013-03-27 04:54:00,
2013-03-27 00:59:00,34.9,28.1,30.22,WNW,291,2.0,2.0,76,0.00,,,0.00,Wunderground v.1.15,2013-03-27 04:59:00,
2013-03-27 01:10:00,34.7,27.9,30.22,WNW,291,1.0,2.0,76,0.00,,,0.00,Wunderground v.1.15,2013-03-27 05:10:00,
2013-03-27 01:15:00,34.4,27.6,30.22,WSW,256,1.0,2.0,76,0.00,,,0.00,Wunderground v.1.15,2013-03-27 05:15:00,
2013-03-27 01:20:00,34.3,27.5,30.22,WSW,256,1.0,1.0,76,0.00,,,0.00,Wunderground v.1.15,2013-03-27 05:20:00,
2013-03-27 01:30:00,33.7,27.3,30.22,WSW,257,0.0,0.0,77,0.00,,,0.00,Wunderground v.1.15,2013-03-27 05:30:00,
2013-03-27 01:35:00,33.5,27.1,30.22,WSW,257,1.0,1.0,77,0.00,,,0.00,Wunderground v.1.15,2013-03-27 05:35:00,
2013-03-27 01:44:00,33.1,26.7,30.22,West,264,1.0,1.0,77,0.00,,,0.00,Wunderground v.1.15,2013-03-27 05:44:00,
2013-03-27 01:49:00,32.9,26.5,30.22,West,270,0.0,0.0,77,0.00,,,0.00,Wunderground v.1.15,2013-03-27 05:49:00,
2013-03-27 01:55:00,32.9,26.8,30.22,West,274,1.0,1.0,78,0.00,,,0.00,Wunderground v.1.15,2013-03-27 05:55:00,
2013-03-27 02:00:00,32.8,26.7,30.22,West,274,1.0,1.0,78,0.00,,,0.00,Wunderground v.1.15,2013-03-27 06:00:00,
2013-03-27 02:10:00,32.7,26.6,30.23,West,272,0.0,0.0,78,0.00,,,0.00,Wunderground v.1.15,2013-03-27 06:10:00,
2013-03-27 02:20:00,32.5,26.7,30.22,WSW,250,1.0,1.0,79,0.00,,,0.00,Wunderground v.1.15,2013-03-27 06:20:00,
2013-03-27 02:25:00,32.5,26.7,30.22,WSW,251,1.0,1.0,79,0.00,,,0.00,Wunderground v.1.15,2013-03-27 06:25:00,
2013-03-27 02:35:00,32.5,27.0,30.22,WSW,256,1.0,2.0,80,0.00,,,0.00,Wunderground v.1.15,2013-03-27 06:35:00,
2013-03-27 02:40:00,32.5,27.0,30.22,West,268,1.0,1.0,80,0.00,,,0.00,Wunderground v.1.15,2013-03-27 06:40:00,
2013-03-27 02:49:00,32.4,26.9,30.22,West,271,1.0,3.0,80,0.00,,,0.00,Wunderground v.1.15,2013-03-27 06:49:00,
2013-03-27 02:54:00,32.4,26.9,30.22,West,272,1.0,3.0,80,0.00,,,0.00,Wunderground v.1.15,2013-03-27 06:54:00,
2013-03-27 03:00:00,32.4,26.9,30.22,West,274,1.0,2.0,80,0.00,,,0.00,Wunderground v.1.15,2013-03-27 07:00:00,
2013-03-27 03:05:00,32.4,26.9,30.22,West,280,1.0,2.0,80,0.00,,,0.00,Wunderground v.1.15,2013-03-27 07:05:00,
2013-03-27 03:10:00,32.4,26.9,30.22,West,277,1.0,1.0,80,0.00,,,0.00,Wunderground v.1.15,2013-03-27 07:10:00,
2013-03-27 03:20:00,32.1,26.6,30.22,West,277,0.0,0.0,80,0.00,,,0.00,Wunderground v.1.15,2013-03-27 07:20:00,
2013-03-27 03:30:00,31.8,26.6,30.22,West,278,0.0,0.0,81,0.00,,,0.00,Wunderground v.1.15,2013-03-27 07:30:00,
2013-03-27 03:40:00,31.5,26.3,30.22,West,278,0.0,0.0,81,0.00,,,0.00,Wunderground v.1.15,2013-03-27 07:40:00,
2013-03-27 03:50:00,31.3,26.4,30.22,WSW,250,1.0,3.0,82,0.00,,,0.00,Wunderground v.1.15,2013-03-27 07:50:00,
2013-03-27 04:00:00,31.2,26.3,30.22,WSW,251,1.0,1.0,82,0.00,,,0.00,Wunderground v.1.15,2013-03-27 08:00:00,
2013-03-27 04:09:00,30.9,26.1,30.21,WSW,251,0.0,0.0,82,0.00,,,0.00,Wunderground v.1.15,2013-03-27 08:09:00,
2013-03-27 04:15:00,30.9,26.1,30.21,West,260,0.0,0.0,82,0.00,,,0.00,Wunderground v.1.15,2013-03-27 08:15:00,
2013-03-27 04:25:00,30.9,26.3,30.22,West,261,0.0,0.0,83,0.00,,,0.00,Wunderground v.1.15,2013-03-27 08:25:00,
2013-03-27 04:35:00,30.7,26.1,30.22,West,270,0.0,1.0,83,0.00,,,0.00,Wunderground v.1.15,2013-03-27 08:35:00,
2013-03-27 04:40:00,30.7,26.1,30.22,West,270,0.0,0.0,83,0.00,,,0.00,Wunderground v.1.15,2013-03-27 08:40:00,
2013-03-27 04:50:00,30.4,25.9,30.22,West,270,0.0,0.0,83,0.00,,,0.00,Wunderground v.1.15,2013-03-27 08:50:00,
2013-03-27 05:00:00,30.4,25.9,30.22,WSW,256,1.0,1.0,83,0.00,,,0.00,Wunderground v.1.15,2013-03-27 09:00:00,
2013-03-27 05:10:00,30.3,25.8,30.22,WSW,256,0.0,0.0,83,0.00,,,0.00,Wunderground v.1.15,2013-03-27 09:10:00,
2013-03-27 05:20:00,30.3,25.8,30.23,WSW,256,0.0,0.0,83,0.00,,,0.00,Wunderground v.1.15,2013-03-27 09:20:00,
2013-03-27 05:29:00,30.4,25.9,30.23,WSW,256,0.0,0.0,83,0.00,,,0.00,Wunderground v.1.15,2013-03-27 09:29:00,
2013-03-27 05:35:00,30.4,25.9,30.23,WSW,256,0.0,0.0,83,0.00,,,0.00,Wunderground v.1.15,2013-03-27 09:35:00,
2013-03-27 05:40:00,30.4,25.6,30.23,WSW,256,0.0,0.0,82,0.00,,,0.00,Wunderground v.1.15,2013-03-27 09:40:00,
2013-03-27 05:50:00,30.6,25.8,30.23,WSW,257,0.0,0.0,82,0.00,,,0.00,Wunderground v.1.15,2013-03-27 09:50:00,
2013-03-27 06:00:00,30.6,25.8,30.23,WSW,247,0.0,2.0,82,0.00,,,0.00,Wunderground v.1.15,2013-03-27 10:00:00,
2013-03-27 06:05:00,30.6,25.5,30.23,WSW,253,1.0,2.0,81,0.00,,,0.00,Wunderground v.1.15,2013-03-27 10:05:00,
2013-03-27 06:15:00,30.4,25.3,30.23,WSW,258,0.0,1.0,81,0.00,,,0.00,Wunderground v.1.15,2013-03-27 10:15:00,
2013-03-27 06:20:00,30.4,25.3,30.24,West,260,0.0,0.0,81,0.00,,,0.00,Wunderground v.1.15,2013-03-27 10:20:00,
2013-03-27 06:30:00,30.6,25.2,30.24,West,261,0.0,0.0,80,0.00,,,0.00,Wunderground v.1.15,2013-03-27 10:30:00,
2013-03-27 06:40:00,30.4,25.0,30.24,West,261,0.0,0.0,80,0.00,,,0.00,Wunderground v.1.15,2013-03-27 10:40:00,
2013-03-27 06:49:00,30.4,25.0,30.25,West,261,0.0,0.0,80,0.00,,,0.00,Wunderground v.1.15,2013-03-27 10:49:00,
2013-03-27 06:55:00,30.6,25.2,30.25,West,261,0.0,0.0,80,0.00,,,0.00,Wunderground v.1.15,2013-03-27 10:55:00,
2013-03-27 07:05:00,30.6,25.2,30.25,West,263,0.0,0.0,80,0.00,,,0.00,Wunderground v.1.15,2013-03-27 11:05:00,
2013-03-27 07:10:00,30.6,25.2,30.25,West,263,0.0,0.0,80,0.00,,,0.00,Wunderground v.1.15,2013-03-27 11:10:00,
2013-03-27 07:20:00,30.7,25.3,30.25,West,263,0.0,0.0,80,0.00,,,0.00,Wunderground v.1.15,2013-03-27 11:20:00,
2013-03-27 07:30:00,30.7,25.3,30.25,West,263,0.0,0.0,80,0.00,,,0.00,Wunderground v.1.15,2013-03-27 11:30:00,
2013-03-27 07:39:00,30.9,25.5,30.25,West,263,0.0,0.0,80,0.00,,,0.00,Wunderground v.1.15,2013-03-27 11:39:00,
2013-03-27 07:45:00,30.9,25.5,30.25,West,263,0.0,0.0,80,0.00,,,0.00,Wunderground v.1.15,2013-03-27 11:45:00,
2013-03-27 07:50:00,31.0,25.6,30.26,West,263,0.0,0.0,80,0.00,,,0.00,Wunderground v.1.15,2013-03-27 11:50:00,
2013-03-27 08:00:00,31.5,26.0,30.26,West,267,0.0,0.0,80,0.00,,,0.00,Wunderground v.1.15,2013-03-27 12:00:00,
2013-03-27 08:10:00,32.4,26.6,30.26,West,271,1.0,1.0,79,0.00,,,0.00,Wunderground v.1.15,2013-03-27 12:10:00,
2013-03-27 08:20:00,33.2,26.8,30.27,West,280,1.0,1.0,77,0.00,,,0.00,Wunderground v.1.15,2013-03-27 12:20:00,
2013-03-27 08:29:00,33.7,26.6,30.27,WSW,243,3.0,4.0,75,0.00,,,0.00,Wunderground v.1.15,2013-03-27 12:29:00,
2013-03-27 08:35:00,33.7,26.3,30.27,West,277,3.0,4.0,74,0.00,,,0.00,Wunderground v.1.15,2013-03-27 12:35:00,
2013-03-27 08:45:00,34.1,26.3,30.27,West,260,2.0,6.0,73,0.00,,,0.00,Wunderground v.1.15,2013-03-27 12:45:00,
2013-03-27 08:50:00,34.3,26.2,30.27,West,277,3.0,5.0,72,0.00,,,0.00,Wunderground v.1.15,2013-03-27 12:50:00,
2013-03-27 09:00:00,34.7,26.6,30.27,West,277,3.0,5.0,72,0.00,,,0.00,Wunderground v.1.15,2013-03-27 13:00:00,
2013-03-27 09:10:00,35.2,26.4,30.27,West,264,4.0,7.0,70,0.00,,,0.00,Wunderground v.1.15,2013-03-27 13:10:00,
2013-03-27 09:19:00,35.6,26.8,30.28,NW,305,4.0,4.0,70,0.00,,,0.00,Wunderground v.1.15,2013-03-27 13:19:00,
2013-03-27 09:25:00,35.8,27.0,30.28,West,281,3.0,5.0,70,0.00,,,0.00,Wunderground v.1.15,2013-03-27 13:25:00,
2013-03-27 09:35:00,35.8,26.3,30.28,WNW,295,4.0,5.0,68,0.00,,,0.00,Wunderground v.1.15,2013-03-27 13:35:00,
2013-03-27 09:40:00,36.3,27.4,30.28,West,270,4.0,4.0,70,0.00,,,0.00,Wunderground v.1.15,2013-03-27 13:40:00,
2013-03-27 09:50:00,37.0,27.4,30.28,NW,311,4.0,4.0,68,0.00,,,0.00,Wunderground v.1.15,2013-03-27 13:50:00,
2013-03-27 09:59:00,38.2,28.6,30.28,West,274,3.0,5.0,68,0.00,,,0.00,Wunderground v.1.15,2013-03-27 13:59:00,
2013-03-27 10:05:00,38.6,28.2,30.28,WSW,253,3.0,6.0,66,0.00,,,0.00,Wunderground v.1.15,2013-03-27 14:05:00,
2013-03-27 10:15:00,38.3,27.6,30.28,NNW,340,5.0,6.0,65,0.00,,,0.00,Wunderground v.1.15,2013-03-27 14:15:00,
2013-03-27 10:20:00,38.8,28.4,30.28,NW,305,4.0,4.0,66,0.00,,,0.00,Wunderground v.1.15,2013-03-27 14:20:00,
2013-03-27 10:30:00,39.5,28.7,30.28,WSW,258,4.0,4.0,65,0.00,,,0.00,Wunderground v.1.15,2013-03-27 14:30:00,
2013-03-27 10:39:00,39.9,28.3,30.28,WSW,237,4.0,5.0,63,0.00,,,0.00,Wunderground v.1.15,2013-03-27 14:39:00,
2013-03-27 10:45:00,40.2,27.8,30.28,WNW,282,4.0,5.0,61,0.00,,,0.00,Wunderground v.1.15,2013-03-27 14:45:00,
2013-03-27 10:55:00,40.6,28.2,30.27,West,264,4.0,8.0,61,0.00,,,0.00,Wunderground v.1.15,2013-03-27 14:55:00,
2013-03-27 11:00:00,40.9,28.5,30.27,WNW,284,5.0,5.0,61,0.00,,,0.00,Wunderground v.1.15,2013-03-27 15:00:00,
2013-03-27 11:10:00,40.8,28.0,30.27,West,281,5.0,5.0,60,0.00,,,0.00,Wunderground v.1.15,2013-03-27 15:10:00,
2013-03-27 11:19:00,41.5,27.8,30.28,West,275,4.0,5.0,58,0.00,,,0.00,Wunderground v.1.15,2013-03-27 15:19:00,
2013-03-27 11:25:00,41.3,28.0,30.28,WNW,289,4.0,5.0,59,0.00,,,0.00,Wunderground v.1.15,2013-03-27 15:25:00,
2013-03-27 11:35:00,42.1,28.4,30.28,West,274,4.0,5.0,58,0.00,,,0.00,Wunderground v.1.15,2013-03-27 15:35:00,
2013-03-27 11:40:00,42.5,28.3,30.28,West,265,4.0,4.0,57,0.00,,,0.00,Wunderground v.1.15,2013-03-27 15:40:00,
2013-03-27 11:50:00,42.2,28.0,30.28,West,264,5.0,5.0,57,0.00,,,0.00,Wunderground v.1.15,2013-03-27 15:50:00,
2013-03-27 12:00:00,40.9,27.7,30.28,WNW,296,4.0,4.0,59,0.00,,,0.00,Wunderground v.1.15,2013-03-27 16:00:00,
2013-03-27 12:09:00,40.9,28.5,30.28,WNW,294,3.0,5.0,61,0.00,,,0.00,Wunderground v.1.15,2013-03-27 16:09:00,
2013-03-27 12:15:00,40.3,27.9,30.28,WNW,284,3.0,5.0,61,0.00,,,0.00,Wunderground v.1.15,2013-03-27 16:15:00,
2013-03-27 12:25:00,39.6,28.8,30.29,WNW,287,3.0,4.0,65,0.00,,,0.00,Wunderground v.1.15,2013-03-27 16:25:00,
2013-03-27 12:30:00,40.1,28.9,30.29,NW,308,4.0,4.0,64,0.00,,,0.00,Wunderground v.1.15,2013-03-27 16:30:00,
2013-03-27 12:40:00,41.6,29.5,30.29,WNW,288,4.0,4.0,62,0.00,,,0.00,Wunderground v.1.15,2013-03-27 16:40:00,
2013-03-27 12:50:00,42.8,28.6,30.29,West,264,4.0,4.0,57,0.00,,,0.00,Wunderground v.1.15,2013-03-27 16:50:00,
2013-03-27 12:59:00,42.5,27.9,30.29,NW,305,5.0,5.0,56,0.00,,,0.00,Wunderground v.1.15,2013-03-27 16:59:00,
2013-03-27 13:05:00,42.3,28.1,30.29,WNW,299,4.0,5.0,57,0.00,,,0.00,Wunderground v.1.15,2013-03-27 17:05:00,
2013-03-27 13:15:00,42.9,28.3,30.29,WNW,288,4.0,4.0,56,0.00,,,0.00,Wunderground v.1.15,2013-03-27 17:15:00,
2013-03-27 13:20:00,43.1,28.5,30.29,West,267,3.0,3.0,56,0.00,,,0.00,Wunderground v.1.15,2013-03-27 17:20:00,
2013-03-27 13:30:00,43.2,28.5,30.29,WNW,288,4.0,5.0,56,0.00,,,0.00,Wunderground v.1.15,2013-03-27 17:30:00,
2013-03-27 13:39:00,42.5,27.5,30.28,WNW,299,5.0,10.0,55,0.00,,,0.00,Wunderground v.1.15,2013-03-27 17:39:00,
2013-03-27 13:45:00,42.5,27.9,30.28,West,281,5.0,10.0,56,0.00,,,0.00,Wunderground v.1.15,2013-03-27 17:45:00,
2013-03-27 13:55:00,43.9,27.4,30.28,WSW,248,4.0,5.0,52,0.00,,,0.00,Wunderground v.1.15,2013-03-27 17:55:00,
2013-03-27 14:05:00,43.1,26.7,30.27,WNW,287,3.0,4.0,52,0.00,,,0.00,Wunderground v.1.15,2013-03-27 18:05:00,
2013-03-27 14:10:00,42.8,26.4,30.27,WNW,294,3.0,3.0,52,0.00,,,0.00,Wunderground v.1.15,2013-03-27 18:10:00,
2013-03-27 14:20:00,43.2,26.3,30.27,West,281,3.0,3.0,51,0.00,,,0.00,Wunderground v.1.15,2013-03-27 18:20:00,
2013-03-27 14:29:00,43.5,25.1,30.27,NW,325,3.0,3.0,48,0.00,,,0.00,Wunderground v.1.15,2013-03-27 18:29:00,
2013-03-27 14:39:00,43.2,25.3,30.26,WNW,288,4.0,4.0,49,0.00,,,0.00,Wunderground v.1.15,2013-03-27 18:39:00,
2013-03-27 14:45:00,42.8,25.4,30.26,West,277,4.0,6.0,50,0.00,,,0.00,Wunderground v.1.15,2013-03-27 18:45:00,
2013-03-27 14:50:00,42.3,26.4,30.26,NW,306,4.0,4.0,53,0.00,,,0.00,Wunderground v.1.15,2013-03-27 18:50:00,
2013-03-27 15:00:00,41.9,25.1,30.26,NW,325,5.0,5.0,51,0.00,,,0.00,Wunderground v.1.15,2013-03-27 19:00:00,
2013-03-27 15:10:00,42.6,25.2,30.26,WNW,282,5.0,5.0,50,0.00,,,0.00,Wunderground v.1.15,2013-03-27 19:10:00,
2013-03-27 15:20:00,43.6,24.7,30.25,West,275,4.0,4.0,47,0.00,,,0.00,Wunderground v.1.15,2013-03-27 19:20:00,
2013-03-27 15:29:00,43.6,23.6,30.25,WNW,284,4.0,4.0,45,0.00,,,0.00,Wunderground v.1.15,2013-03-27 19:29:00,
2013-03-27 15:35:00,43.8,23.8,30.25,WNW,288,4.0,6.0,45,0.00,,,0.00,Wunderground v.1.15,2013-03-27 19:35:00,
2013-03-27 15:40:00,43.5,24.1,30.25,WNW,295,4.0,4.0,46,0.00,,,0.00,Wunderground v.1.15,2013-03-27 19:40:00,
2013-03-27 15:50:00,43.2,24.3,30.26,West,272,4.0,11.0,47,0.00,,,0.00,Wunderground v.1.15,2013-03-27 19:50:00,
2013-03-27 16:00:00,42.5,26.1,30.26,WSW,243,5.0,11.0,52,0.00,,,0.00,Wunderground v.1.15,2013-03-27 20:00:00,
2013-03-27 16:05:00,42.5,25.6,30.26,West,277,4.0,11.0,51,0.00,,,0.00,Wunderground v.1.15,2013-03-27 20:05:00,
2013-03-27 16:15:00,42.9,26.5,30.26,NW,304,4.0,5.0,52,0.00,,,0.00,Wunderground v.1.15,2013-03-27 20:15:00,
2013-03-27 16:25:00,42.8,25.4,30.25,West,260,5.0,13.0,50,0.00,,,0.00,Wunderground v.1.15,2013-03-27 20:25:00,
2013-03-27 16:30:00,42.6,25.7,30.25,West,278,5.0,5.0,51,0.00,,,0.00,Wunderground v.1.15,2013-03-27 20:30:00,
2013-03-27 16:40:00,42.3,25.9,30.25,WNW,284,3.0,4.0,52,0.00,,,0.00,Wunderground v.1.15,2013-03-27 20:40:00,
2013-03-27 16:49:00,42.5,26.6,30.25,WNW,299,2.0,2.0,53,0.00,,,0.00,Wunderground v.1.15,2013-03-27 20:49:00,
2013-03-27 16:59:00,42.9,26.9,30.25,West,265,4.0,4.0,53,0.00,,,0.00,Wunderground v.1.15,2013-03-27 20:59:00,
2013-03-27 17:09:00,43.6,27.1,30.26,West,260,3.0,3.0,52,0.00,,,0.00,Wunderground v.1.15,2013-03-27 21:09:00,
2013-03-27 17:15:00,43.8,26.3,30.26,NW,305,3.0,3.0,50,0.00,,,0.00,Wunderground v.1.15,2013-03-27 21:15:00,
2013-03-27 17:25:00,43.8,26.8,30.25,WNW,289,2.0,4.0,51,0.00,,,0.00,Wunderground v.1.15,2013-03-27 21:25:00,
2013-03-27 17:35:00,43.5,26.1,30.26,WNW,301,3.0,6.0,50,0.00,,,0.00,Wunderground v.1.15,2013-03-27 21:35:00,
2013-03-27 17:40:00,43.2,25.3,30.26,West,281,3.0,3.0,49,0.00,,,0.00,Wunderground v.1.15,2013-03-27 21:40:00,
2013-03-27 17:50:00,42.9,26.0,30.26,WSW,253,2.0,2.0,51,0.00,,,0.00,Wunderground v.1.15,2013-03-27 21:50:00,
2013-03-27 17:59:00,42.9,26.0,30.26,West,281,2.0,2.0,51,0.00,,,0.00,Wunderground v.1.15,2013-03-27 21:59:00,
2013-03-27 18:09:00,42.9,25.5,30.26,WNW,287,4.0,4.0,50,0.00,,,0.00,Wunderground v.1.15,2013-03-27 22:09:00,
2013-03-27 18:15:00,43.1,25.7,30.26,West,265,3.0,6.0,50,0.00,,,0.00,Wunderground v.1.15,2013-03-27 22:15:00,
2013-03-27 18:25:00,42.9,26.0,30.26,West,270,3.0,4.0,51,0.00,,,0.00,Wunderground v.1.15,2013-03-27 22:25:00,
2013-03-27 18:34:00,42.5,26.1,30.26,WSW,254,2.0,3.0,52,0.00,,,0.00,Wunderground v.1.15,2013-03-27 22:34:00,
2013-03-27 18:40:00,42.3,25.9,30.26,West,270,3.0,6.0,52,0.00,,,0.00,Wunderground v.1.15,2013-03-27 22:40:00,
2013-03-27 18:49:00,42.2,26.3,30.26,West,274,2.0,2.0,53,0.00,,,0.00,Wunderground v.1.15,2013-03-27 22:49:00,
2013-03-27 18:59:00,42.2,26.3,30.26,WNW,284,1.0,1.0,53,0.00,,,0.00,Wunderground v.1.15,2013-03-27 22:59:00,
2013-03-27 19:05:00,42.3,25.9,30.26,NW,306,2.0,3.0,52,0.00,,,0.00,Wunderground v.1.15,2013-03-27 23:05:00,
2013-03-27 19:15:00,42.2,26.3,30.26,WNW,295,3.0,12.0,53,0.00,,,0.00,Wunderground v.1.15,2013-03-27 23:15:00,
2013-03-27 19:20:00,41.6,27.9,30.27,WNW,291,4.0,6.0,58,0.00,,,0.00,Wunderground v.1.15,2013-03-27 23:20:00,
2013-03-27 19:30:00,41.2,28.8,30.27,NW,308,2.0,2.0,61,0.00,,,0.00,Wunderground v.1.15,2013-03-27 23:30:00,
2013-03-27 19:39:00,40.8,27.6,30.27,WNW,292,2.0,8.0,59,0.00,,,0.00,Wunderground v.1.15,2013-03-27 23:39:00,
2013-03-27 19:49:00,40.2,27.4,30.27,West,268,3.0,3.0,60,0.00,,,0.00,Wunderground v.1.15,2013-03-27 23:49:00,
2013-03-27 19:59:00,39.6,27.2,30.27,West,274,1.0,1.0,61,0.00,,,0.00,Wunderground v.1.15,2013-03-27 23:59:00,
2013-03-27 20:10:00,39.2,27.3,30.27,WNW,285,1.0,1.0,62,0.00,,,0.00,Wunderground v.1.15,2013-03-28 00:10:00,
2013-03-27 20:20:00,38.9,27.4,30.27,WNW,285,1.0,1.0,63,0.00,,,0.00,Wunderground v.1.15,2013-03-28 00:20:00,
2013-03-27 20:30:00,38.8,28.0,30.27,WNW,285,0.0,0.0,65,0.00,,,0.00,Wunderground v.1.15,2013-03-28 00:30:00,
2013-03-27 20:39:00,38.9,28.1,30.27,WNW,287,1.0,1.0,65,0.00,,,0.00,Wunderground v.1.15,2013-03-28 00:39:00,
2013-03-27 20:45:00,39.1,28.3,30.27,WNW,287,1.0,2.0,65,0.00,,,0.00,Wunderground v.1.15,2013-03-28 00:45:00,
2013-03-27 20:50:00,39.1,28.3,30.28,West,280,1.0,1.0,65,0.00,,,0.00,Wunderground v.1.15,2013-03-28 00:50:00,
2013-03-27 21:00:00,39.2,28.4,30.28,West,281,1.0,2.0,65,0.00,,,0.00,Wunderground v.1.15,2013-03-28 01:00:00,
2013-03-27 21:10:00,39.2,28.4,30.28,WNW,282,1.0,1.0,65,0.00,,,0.00,Wunderground v.1.15,2013-03-28 01:10:00,
2013-03-27 21:19:00,39.3,28.5,30.28,WNW,298,1.0,1.0,65,0.00,,,0.00,Wunderground v.1.15,2013-03-28 01:19:00,
2013-03-27 21:29:00,39.3,28.9,30.28,NW,322,1.0,2.0,66,0.00,,,0.00,Wunderground v.1.15,2013-03-28 01:29:00,
2013-03-27 21:35:00,39.2,29.2,30.29,NW,320,1.0,2.0,67,0.00,,,0.00,Wunderground v.1.15,2013-03-28 01:35:00,
2013-03-27 21:40:00,39.2,29.2,30.29,NW,319,1.0,1.0,67,0.00,,,0.00,Wunderground v.1.15,2013-03-28 01:40:00,
2013-03-27 21:49:00,39.1,29.4,30.29,NW,319,0.0,0.0,68,0.00,,,0.00,Wunderground v.1.15,2013-03-28 01:49:00,
2013-03-27 21:59:00,38.8,29.1,30.29,NW,319,0.0,0.0,68,0.00,,,0.00,Wunderground v.1.15,2013-03-28 01:59:00,
2013-03-27 22:09:00,38.6,29.3,30.29,NW,319,0.0,0.0,69,0.00,,,0.00,Wunderground v.1.15,2013-03-28 02:09:00,
2013-03-27 22:20:00,38.6,29.3,30.29,NW,319,1.0,1.0,69,0.00,,,0.00,Wunderground v.1.15,2013-03-28 02:20:00,
2013-03-27 22:29:00,38.6,29.3,30.29,NW,319,0.0,0.0,69,0.00,,,0.00,Wunderground v.1.15,2013-03-28 02:29:00,
2013-03-27 22:39:00,38.3,29.0,30.29,NW,319,0.0,0.0,69,0.00,,,0.00,Wunderground v.1.15,2013-03-28 02:39:00,
2013-03-27 22:45:00,38.2,29.3,30.29,NW,319,0.0,0.0,70,0.00,,,0.00,Wunderground v.1.15,2013-03-28 02:45:00,
2013-03-27 22:54:00,37.9,29.3,30.29,NW,319,0.0,0.0,71,0.00,,,0.00,Wunderground v.1.15,2013-03-28 02:54:00,
2013-03-27 22:59:00,37.8,29.2,30.29,NW,319,0.0,0.0,71,0.00,,,0.00,Wunderground v.1.15,2013-03-28 02:59:00,
2013-03-27 23:05:00,37.6,29.4,30.29,NW,319,0.0,2.0,72,0.00,,,0.00,Wunderground v.1.15,2013-03-28 03:05:00,
2013-03-27 23:15:00,37.9,29.0,30.29,WNW,301,1.0,2.0,70,0.00,,,0.00,Wunderground v.1.15,2013-03-28 03:15:00,
2013-03-27 23:20:00,38.0,29.1,30.29,WNW,301,0.0,1.0,70,0.00,,,0.00,Wunderground v.1.15,2013-03-28 03:20:00,
2013-03-27 23:30:00,38.0,29.1,30.29,WNW,301,0.0,1.0,70,0.00,,,0.00,Wunderground v.1.15,2013-03-28 03:30:00,
2013-03-27 23:40:00,38.0,28.7,30.29,WNW,301,0.0,0.0,69,0.00,,,0.00,Wunderground v.1.15,2013-03-28 03:40:00,
2013-03-27 23:49:00,37.9,29.0,30.29,WNW,301,0.0,0.0,70,0.00,,,0.00,Wunderground v.1.15,2013-03-28 03:49:00,
2013-03-27 23:59:00,37.8,28.9,30.29,WNW,301,0.0,0.0,70,0.00,,,0.00,Wunderground v.1.15,2013-03-28 03:59:00,